createdAt,value
2022-08-07T00:03:40.201Z,98902.41
2022-08-07T00:06:14.675Z,98902.13
2022-08-07T00:08:44.408Z,98892.94
2022-08-07T00:11:11.707Z,98904.00
2022-08-07T00:13:48.073Z,98894.25
2022-08-07T00:16:17.481Z,98907.47
2022-08-07T00:18:48.710Z,98906.41
2022-08-07T00:21:55.538Z,98913.88
2022-08-07T00:24:02.510Z,98914.50
2022-08-07T00:26:48.800Z,98913.44
2022-08-07T00:29:18.263Z,98920.81
2022-08-07T00:31:51.295Z,98922.44
2022-08-07T00:34:18.311Z,98925.38
2022-08-07T00:36:49.013Z,98921.06
2022-08-07T00:39:20.597Z,98918.09
2022-08-07T00:42:01.712Z,98928.44
2022-08-07T00:44:33.295Z,98923.25
2022-08-07T00:47:01.764Z,98927.66
2022-08-07T00:50:20.544Z,98929.16
2022-08-07T00:52:17.713Z,98932.59
2022-08-07T00:54:53.618Z,98938.09
2022-08-07T00:57:23.064Z,98945.06
2022-08-07T00:59:53.156Z,98947.06
2022-08-07T01:02:29.028Z,98961.28
2022-08-07T01:04:58.726Z,98966.94
2022-08-07T01:07:27.543Z,98966.78
2022-08-07T01:10:06.689Z,98959.94
2022-08-07T01:12:53.578Z,98964.88
2022-08-07T01:15:35.839Z,98973.94
2022-08-07T01:18:10.724Z,98969.38
2022-08-07T01:20:57.382Z,98966.28
2022-08-07T01:23:38.052Z,98973.44
2022-08-07T01:26:11.990Z,98983.44
2022-08-07T01:28:45.997Z,98978.31
2022-08-07T01:31:17.843Z,98975.56
2022-08-07T01:33:56.243Z,98974.50
2022-08-07T01:36:34.029Z,98975.75
2022-08-07T01:39:09.796Z,98967.81
2022-08-07T01:41:55.091Z,98978.25
2022-08-07T01:44:26.681Z,98982.84
2022-08-07T01:46:57.474Z,98986.31
2022-08-07T01:49:28.584Z,98982.53
2022-08-07T01:52:04.925Z,98988.03
2022-08-07T01:54:39.923Z,98997.75
2022-08-07T01:57:27.889Z,98984.47
2022-08-07T02:00:02.023Z,99000.06
2022-08-07T02:03:12.399Z,98994.22
2022-08-07T02:06:08.998Z,98994.59
2022-08-07T02:08:55.748Z,98997.06
2022-08-07T02:11:30.817Z,98998.59
2022-08-07T02:14:32.443Z,99001.09
2022-08-07T02:16:59.896Z,98995.06
2022-08-07T02:20:04.525Z,99002.06
2022-08-07T02:22:20.202Z,98998.78
2022-08-07T02:24:50.582Z,98994.59
2022-08-07T02:27:20.889Z,99000.72
2022-08-07T02:29:54.806Z,99001.88
2022-08-07T02:32:27.084Z,99007.69
2022-08-07T02:34:58.829Z,99009.25
2022-08-07T02:37:34.172Z,99007.63
2022-08-07T02:40:31.197Z,99012.91
2022-08-07T02:42:53.551Z,99010.28
2022-08-07T02:46:00.851Z,99014.31
2022-08-07T02:48:15.361Z,99012.66
2022-08-07T02:50:51.215Z,99024.72
2022-08-07T02:53:27.436Z,99022.16
2022-08-07T02:56:04.137Z,99022.31
2022-08-07T02:58:34.584Z,99022.63
2022-08-07T03:01:03.334Z,99020.16
2022-08-07T03:03:50.131Z,99028.09
2022-08-07T03:06:26.209Z,99037.81
2022-08-07T03:09:06.264Z,99034.38
2022-08-07T03:11:38.508Z,99030.16
2022-08-07T03:14:07.236Z,99032.09
2022-08-07T03:16:35.274Z,99043.47
2022-08-07T03:19:02.662Z,99050.78
2022-08-07T03:21:32.988Z,99055.25
2022-08-07T03:24:19.722Z,99062.91
2022-08-07T03:26:59.201Z,99065.41
2022-08-07T03:29:53.298Z,99072.25
2022-08-07T03:32:28.321Z,99073.16
2022-08-07T03:35:01.096Z,99077.47
2022-08-07T03:37:53.770Z,99090.66
2022-08-07T03:40:24.119Z,99092.00
2022-08-07T03:42:58.472Z,99094.13
2022-08-07T03:45:30.762Z,99100.72
2022-08-07T03:47:59.095Z,99102.13
2022-08-07T03:50:28.447Z,99103.53
2022-08-07T03:52:59.218Z,99110.50
2022-08-07T03:55:53.014Z,99119.22
2022-08-07T03:59:05.451Z,99113.75
2022-08-07T04:01:07.528Z,99110.66
2022-08-07T04:03:49.779Z,99108.66
2022-08-07T04:06:37.170Z,99114.69
2022-08-07T04:09:06.159Z,99121.44
2022-08-07T04:12:21.346Z,99122.03
2022-08-07T04:14:38.884Z,99126.97
2022-08-07T04:17:20.067Z,99129.00
2022-08-07T04:19:59.407Z,99136.94
2022-08-07T04:22:28.941Z,99140.06
2022-08-07T04:25:00.892Z,99148.72
2022-08-07T04:27:28.489Z,99146.63
2022-08-07T04:30:04.676Z,99149.53
2022-08-07T04:32:34.568Z,99142.94
2022-08-07T04:35:11.251Z,99157.88
2022-08-07T04:38:00.830Z,99158.16
2022-08-07T04:40:29.848Z,99159.06
2022-08-07T04:43:02.134Z,99163.78
2022-08-07T04:46:00.900Z,99166.84
2022-08-07T04:48:31.073Z,99172.19
2022-08-07T04:51:38.974Z,99171.97
2022-08-07T04:54:22.867Z,99180.97
2022-08-07T04:58:10.762Z,99177.59
2022-08-07T05:00:18.836Z,99183.69
2022-08-07T05:04:00.541Z,99182.22
2022-08-07T05:06:20.158Z,99179.94
2022-08-07T05:09:19.702Z,99184.69
2022-08-07T05:12:09.912Z,99185.28
2022-08-07T05:14:58.995Z,99196.78
2022-08-07T05:18:00.648Z,99197.34
2022-08-07T05:20:25.759Z,99196.22
2022-08-07T05:22:56.992Z,99201.78
2022-08-07T05:25:25.892Z,99203.63
2022-08-07T05:28:20.120Z,99198.91
2022-08-07T05:30:49.154Z,99206.59
2022-08-07T05:33:17.991Z,99215.13
2022-08-07T05:35:48.985Z,99211.41
2022-08-07T05:38:58.059Z,99214.34
2022-08-07T05:41:05.529Z,99227.34
2022-08-07T05:43:50.231Z,99220.47
2022-08-07T05:46:29.560Z,99229.50
2022-08-07T05:48:59.507Z,99235.59
2022-08-07T05:51:31.517Z,99244.78
2022-08-07T05:54:12.273Z,99248.03
2022-08-07T05:56:51.445Z,99251.56
2022-08-07T05:59:21.308Z,99255.59
2022-08-07T06:01:51.145Z,99253.34
2022-08-07T06:04:26.259Z,99261.56
2022-08-07T06:07:03.759Z,99250.97
2022-08-07T06:10:03.741Z,99259.91
2022-08-07T06:12:21.099Z,99258.59
2022-08-07T06:14:55.372Z,99260.75
2022-08-07T06:17:37.807Z,99265.72
2022-08-07T06:20:06.212Z,99264.50
2022-08-07T06:23:01.674Z,99260.31
2022-08-07T06:25:34.752Z,99267.66
2022-08-07T06:28:08.925Z,99264.84
2022-08-07T06:30:45.347Z,99268.81
2022-08-07T06:33:16.116Z,99269.09
2022-08-07T06:35:45.764Z,99270.16
2022-08-07T06:38:31.012Z,99271.50
2022-08-07T06:41:02.089Z,99274.25
2022-08-07T06:43:39.419Z,99271.47
2022-08-07T06:46:11.499Z,99272.16
2022-08-07T06:48:41.825Z,99265.09
2022-08-07T06:51:31.085Z,99262.41
2022-08-07T06:55:33.578Z,99258.56
2022-08-07T06:56:55.702Z,99260.03
2022-08-07T07:00:15.095Z,99269.66
2022-08-07T07:02:53.725Z,99277.88
2022-08-07T07:05:14.502Z,99280.31
2022-08-07T07:08:06.688Z,99262.97
2022-08-07T07:10:36.783Z,99276.09
2022-08-07T07:13:56.030Z,99272.31
2022-08-07T07:16:19.583Z,99270.91
2022-08-07T07:18:55.861Z,99276.53
2022-08-07T07:21:40.565Z,99284.06
2022-08-07T07:24:17.400Z,99273.09
2022-08-07T07:26:49.710Z,99260.53
2022-08-07T07:29:39.463Z,99264.66
2022-08-07T07:32:14.533Z,99280.56
2022-08-07T07:34:48.622Z,99290.06
2022-08-07T07:37:45.457Z,99272.75
2022-08-07T07:40:10.137Z,99274.44
2022-08-07T07:42:51.111Z,99274.28
2022-08-07T07:46:35.642Z,99270.19
2022-08-07T07:48:13.063Z,99275.28
2022-08-07T07:51:02.184Z,99272.41
2022-08-07T07:54:02.223Z,99275.88
2022-08-07T07:56:32.213Z,99280.56
2022-08-07T07:59:02.052Z,99274.75
2022-08-07T08:02:02.378Z,99281.09
2022-08-07T08:04:25.372Z,99277.25
2022-08-07T08:06:54.911Z,99281.53
2022-08-07T08:09:29.486Z,99276.97
2022-08-07T08:12:02.656Z,99280.16
2022-08-07T08:14:36.724Z,99286.91
2022-08-07T08:17:56.389Z,99285.09
2022-08-07T08:20:16.348Z,99291.78
2022-08-07T08:23:08.372Z,99293.22
2022-08-07T08:25:57.162Z,99300.31
2022-08-07T08:28:37.416Z,99307.78
2022-08-07T08:31:14.724Z,99300.22
2022-08-07T08:33:55.876Z,99301.66
2022-08-07T08:36:29.803Z,99305.91
2022-08-07T08:39:02.283Z,99293.94
2022-08-07T08:41:57.351Z,99293.03
2022-08-07T08:44:55.922Z,99298.97
2022-08-07T08:47:25.173Z,99300.81
2022-08-07T08:50:34.760Z,99293.59
2022-08-07T08:53:19.433Z,99295.81
2022-08-07T08:56:10.821Z,99294.78
2022-08-07T08:59:06.390Z,99307.19
2022-08-07T09:01:49.276Z,99309.38
2022-08-07T09:04:26.009Z,99320.00
2022-08-07T09:07:45.948Z,99308.16
2022-08-07T09:10:54.824Z,99305.44
2022-08-07T09:13:37.093Z,99299.97
2022-08-07T09:16:23.873Z,99302.72
2022-08-07T09:19:53.610Z,99301.81
2022-08-07T09:24:29.060Z,99295.44
2022-08-07T09:25:44.215Z,99298.34
2022-08-07T09:29:24.467Z,99301.91
2022-08-07T09:31:56.504Z,99294.59
2022-08-07T09:36:04.048Z,99291.25
2022-08-07T09:38:03.813Z,99298.63
2022-08-07T09:40:55.995Z,99296.59
2022-08-07T09:44:06.664Z,99291.31
2022-08-07T09:47:50.720Z,99296.59
2022-08-07T09:50:23.543Z,99295.22
2022-08-07T09:53:01.557Z,99293.03
2022-08-07T09:56:03.246Z,99294.94
2022-08-07T09:59:14.629Z,99286.78
2022-08-07T10:01:58.393Z,99295.34
2022-08-07T10:04:47.769Z,99277.88
2022-08-07T10:07:39.770Z,99288.28
2022-08-07T10:14:06.885Z,99286.25
2022-08-07T10:16:56.249Z,99269.03
2022-08-07T10:19:45.471Z,99275.38
2022-08-07T10:22:46.753Z,99268.94
2022-08-07T10:25:43.144Z,99274.84
2022-08-07T10:28:41.341Z,99266.06
2022-08-07T10:31:38.945Z,99259.22
2022-08-07T10:34:37.627Z,99260.31
2022-08-07T10:37:19.166Z,99262.28
2022-08-07T10:40:39.053Z,99264.28
2022-08-07T10:43:34.409Z,99261.16
2022-08-07T10:46:13.206Z,99264.09
2022-08-07T10:49:02.575Z,99257.22
2022-08-07T10:51:39.695Z,99260.84
2022-08-07T10:54:55.201Z,99249.59
2022-08-07T10:57:43.367Z,99251.03
2022-08-07T11:00:39.308Z,99252.78
2022-08-07T11:03:37.907Z,99249.97
2022-08-07T11:06:31.716Z,99246.91
2022-08-07T11:10:09.641Z,99244.94
2022-08-07T11:12:08.543Z,99233.78
2022-08-07T11:15:00.248Z,99238.88
2022-08-07T11:17:43.430Z,99234.28
2022-08-07T11:20:50.687Z,99218.47
2022-08-07T11:23:30.772Z,99222.09
2022-08-07T11:26:22.183Z,99213.41
2022-08-07T11:29:05.680Z,99212.56
2022-08-07T11:32:02.992Z,99212.44
2022-08-07T11:34:42.674Z,99207.41
2022-08-07T11:37:57.860Z,99209.56
2022-08-07T11:40:56.846Z,99196.03
2022-08-07T11:43:29.777Z,99191.28
2022-08-07T11:46:59.227Z,99198.03
2022-08-07T11:50:31.156Z,99198.03
2022-08-07T11:52:58.094Z,99198.56
2022-08-07T11:56:09.315Z,99192.38
2022-08-07T12:00:08.951Z,99196.75
2022-08-07T12:02:38.466Z,99193.53
2022-08-07T12:05:48.907Z,99199.91
2022-08-07T12:08:25.915Z,99186.41
2022-08-07T12:11:19.981Z,99191.22
2022-08-07T12:13:59.914Z,99180.47
2022-08-07T12:16:31.872Z,99186.84
2022-08-07T12:19:26.307Z,99183.16
2022-08-07T12:22:37.657Z,99182.34
2022-08-07T12:26:21.687Z,99175.09
2022-08-07T12:28:37.015Z,99167.34
2022-08-07T12:31:17.212Z,99165.78
2022-08-07T12:34:00.858Z,99171.03
2022-08-07T12:36:32.894Z,99161.63
2022-08-07T12:39:09.284Z,99171.94
2022-08-07T12:41:53.855Z,99177.41
2022-08-07T12:44:24.857Z,99168.06
2022-08-07T12:47:31.677Z,99174.00
2022-08-07T12:50:39.014Z,99166.16
2022-08-07T12:54:02.739Z,99160.69
2022-08-07T12:56:29.460Z,99156.44
2022-08-07T12:58:59.746Z,99164.53
2022-08-07T13:01:32.198Z,99162.81
2022-08-07T13:04:32.504Z,99160.59
2022-08-07T13:08:13.348Z,99153.03
2022-08-07T13:10:51.777Z,99150.41
2022-08-07T13:13:48.079Z,99146.94
2022-08-07T13:16:38.554Z,99150.63
2022-08-07T13:19:34.947Z,99138.81
2022-08-07T13:22:27.501Z,99141.56
2022-08-07T13:25:28.912Z,99144.00
2022-08-07T13:28:24.200Z,99141.38
2022-08-07T13:31:21.534Z,99134.16
2022-08-07T13:34:34.035Z,99130.38
2022-08-07T13:37:20.104Z,99136.47
2022-08-07T13:40:35.840Z,99125.91
2022-08-07T13:42:50.002Z,99122.31
2022-08-07T13:46:11.069Z,99123.66
2022-08-07T13:48:27.685Z,99111.75
2022-08-07T13:51:01.965Z,99110.03
2022-08-07T13:54:00.130Z,99109.22
2022-08-07T13:56:36.105Z,99105.59
2022-08-07T13:59:33.085Z,99100.00
2022-08-07T14:02:10.781Z,99100.56
2022-08-07T14:04:54.593Z,99104.16
2022-08-07T14:07:34.132Z,99089.06
2022-08-07T14:10:20.431Z,99099.63
2022-08-07T14:12:56.088Z,99100.16
2022-08-07T14:15:38.552Z,99097.88
2022-08-07T14:18:29.856Z,99091.44
2022-08-07T14:21:20.976Z,99091.22
2022-08-07T14:24:21.174Z,99090.59
2022-08-07T14:26:57.733Z,99090.81
2022-08-07T14:30:05.699Z,99089.41
2022-08-07T14:32:26.980Z,99086.19
2022-08-07T14:34:55.355Z,99081.78
2022-08-07T14:37:32.912Z,99090.31
2022-08-07T14:40:16.979Z,99081.47
2022-08-07T14:45:55.572Z,99072.53
2022-08-07T14:48:27.630Z,99060.75
2022-08-07T14:50:58.042Z,99060.31
2022-08-07T14:54:08.681Z,99053.25
2022-08-07T14:56:29.863Z,99050.41
2022-08-07T14:59:03.244Z,99042.75
2022-08-07T15:01:51.485Z,99029.81
2022-08-07T15:04:21.983Z,99032.13
2022-08-07T15:06:52.846Z,99021.66
2022-08-07T15:09:58.797Z,99012.06
2022-08-07T15:12:26.308Z,99011.44
2022-08-07T15:15:21.498Z,99008.94
2022-08-07T15:17:58.486Z,99009.34
2022-08-07T15:25:14.675Z,99014.97
2022-08-07T15:26:20.976Z,98999.25
2022-08-07T15:30:03.531Z,99003.53
2022-08-07T15:32:01.396Z,99005.22
2022-08-07T15:34:50.576Z,99005.38
2022-08-07T15:37:27.964Z,99013.06
2022-08-07T15:39:59.199Z,99004.75
2022-08-07T15:45:25.120Z,99002.44
2022-08-07T15:48:26.955Z,99005.63
2022-08-07T15:51:08.476Z,98999.19
2022-08-07T15:53:53.205Z,98996.03
2022-08-07T15:56:24.824Z,98993.44
2022-08-07T15:58:59.375Z,98991.50
2022-08-07T16:01:38.685Z,98983.22
2022-08-07T16:04:15.596Z,98994.16
2022-08-07T16:06:50.832Z,98995.47
2022-08-07T16:09:40.875Z,98989.03
2022-08-07T16:12:13.772Z,98991.69
2022-08-07T16:15:55.244Z,98980.75
2022-08-07T16:18:50.475Z,98977.56
2022-08-07T16:22:02.205Z,98981.22
2022-08-07T16:24:55.542Z,98985.41
2022-08-07T16:27:39.878Z,98992.97
2022-08-07T16:30:31.084Z,98998.03
2022-08-07T16:34:02.435Z,99008.03
2022-08-07T16:36:22.372Z,99002.28
2022-08-07T16:39:04.819Z,99002.03
2022-08-07T16:41:54.000Z,99004.03
2022-08-07T16:45:14.152Z,99009.50
2022-08-07T16:47:51.130Z,99024.94
2022-08-07T16:51:07.437Z,99019.31
2022-08-07T16:54:01.508Z,99027.09
2022-08-07T16:56:32.673Z,99027.88
2022-08-07T16:59:19.436Z,99028.75
2022-08-07T17:02:03.057Z,99035.53
2022-08-07T17:04:58.539Z,99034.56
2022-08-07T17:07:55.311Z,99047.69
2022-08-07T17:10:56.826Z,99045.41
2022-08-07T17:14:19.601Z,99048.09
2022-08-07T17:16:45.368Z,99046.06
2022-08-07T17:20:02.567Z,99046.50
2022-08-07T17:22:30.207Z,99046.09
2022-08-07T17:25:10.844Z,99057.31
2022-08-07T17:27:50.966Z,99062.22
2022-08-07T17:30:20.431Z,99064.34
2022-08-07T17:32:59.675Z,99057.50
2022-08-07T17:35:55.704Z,99059.53
2022-08-07T17:38:34.303Z,99057.41
2022-08-07T17:42:04.072Z,99065.09
2022-08-07T17:44:33.992Z,99069.88
2022-08-07T17:47:17.040Z,99077.31
2022-08-07T17:50:16.561Z,99072.63
2022-08-07T17:52:58.937Z,99079.31
2022-08-07T17:56:00.567Z,99083.38
2022-08-07T17:58:53.112Z,99089.28
2022-08-07T18:01:37.230Z,99093.13
2022-08-07T18:04:49.152Z,99102.31
2022-08-07T18:07:34.309Z,99101.19
2022-08-07T18:10:32.828Z,99103.06
2022-08-07T18:13:10.103Z,99098.97
2022-08-07T18:16:03.164Z,99100.44
2022-08-07T18:21:03.410Z,99102.84
2022-08-07T18:21:57.929Z,99103.53
2022-08-07T18:24:40.275Z,99100.59
2022-08-07T18:27:20.778Z,99098.22
2022-08-07T18:30:06.081Z,99101.16
2022-08-07T18:33:10.752Z,99094.59
2022-08-07T18:36:14.860Z,99099.41
2022-08-07T18:40:06.915Z,99104.94
2022-08-07T18:42:04.151Z,99095.03
2022-08-07T18:45:43.814Z,99107.31
2022-08-07T18:48:08.074Z,99107.22
2022-08-07T18:50:47.968Z,99111.13
2022-08-07T18:53:39.417Z,99112.16
2022-08-07T18:56:31.769Z,99111.38
2022-08-07T18:59:48.057Z,99104.75
2022-08-07T19:02:34.108Z,99113.56
2022-08-07T19:05:19.821Z,99109.56
2022-08-07T19:08:05.435Z,99118.38
2022-08-07T19:10:52.790Z,99121.78
2022-08-07T19:13:25.402Z,99121.66
2022-08-07T19:17:00.562Z,99116.03
2022-08-07T19:19:31.929Z,99126.69
2022-08-07T19:22:30.959Z,99133.66
2022-08-07T19:25:05.605Z,99129.84
2022-08-07T19:28:56.735Z,99125.91
2022-08-07T19:30:55.492Z,99132.31
2022-08-07T19:33:33.273Z,99125.47
2022-08-07T19:36:03.322Z,99131.66
2022-08-07T19:38:32.712Z,99129.06
2022-08-07T19:41:02.201Z,99124.78
2022-08-07T19:43:49.183Z,99134.66
2022-08-07T19:46:35.884Z,99128.75
2022-08-07T19:49:13.042Z,99129.50
2022-08-07T19:51:52.760Z,99134.06
2022-08-07T19:54:32.448Z,99135.91
2022-08-07T19:58:01.165Z,99132.50
2022-08-07T19:59:56.261Z,99127.25
2022-08-07T20:02:51.664Z,99140.91
2022-08-07T20:05:27.875Z,99142.88
2022-08-07T20:08:00.412Z,99144.91
2022-08-07T20:10:54.272Z,99140.63
2022-08-07T20:13:41.929Z,99140.16
2022-08-07T20:16:15.723Z,99139.81
2022-08-07T20:19:00.792Z,99144.28
2022-08-07T20:21:41.740Z,99146.13
2022-08-07T20:24:28.870Z,99144.19
2022-08-07T20:27:02.092Z,99138.28
2022-08-07T20:29:48.243Z,99148.19
2022-08-07T20:32:25.440Z,99144.91
2022-08-07T20:34:57.446Z,99151.03
2022-08-07T20:37:30.957Z,99153.91
2022-08-07T20:40:05.031Z,99150.31
2022-08-07T20:42:56.501Z,99151.09
2022-08-07T20:45:32.818Z,99152.53
2022-08-07T20:48:25.835Z,99160.91
2022-08-07T20:51:01.548Z,99164.22
2022-08-07T20:54:04.067Z,99159.19
2022-08-07T20:56:26.013Z,99163.84
2022-08-07T20:58:58.612Z,99170.19
2022-08-07T21:01:36.302Z,99160.25
2022-08-07T21:04:22.737Z,99164.94
2022-08-07T21:06:55.113Z,99174.56
2022-08-07T21:09:51.507Z,99167.16
2022-08-07T21:12:25.962Z,99173.47
2022-08-07T21:14:58.909Z,99170.41
2022-08-07T21:18:01.928Z,99179.66
2022-08-07T21:20:29.648Z,99177.44
2022-08-07T21:23:07.717Z,99175.66
2022-08-07T21:25:58.381Z,99187.91
2022-08-07T21:28:51.129Z,99178.59
2022-08-07T21:31:49.877Z,99182.44
2022-08-07T21:34:26.680Z,99178.91
2022-08-07T21:37:08.672Z,99179.34
2022-08-07T21:39:55.131Z,99188.47
2022-08-07T21:42:46.689Z,99182.25
2022-08-07T21:46:09.581Z,99184.97
2022-08-07T21:48:28.468Z,99177.00
2022-08-07T21:51:32.829Z,99183.38
2022-08-07T21:54:48.427Z,99169.53
2022-08-07T21:57:52.308Z,99171.84
2022-08-07T22:00:25.250Z,99175.53
2022-08-07T22:03:03.432Z,99173.56
2022-08-07T22:05:45.352Z,99184.84
2022-08-07T22:08:19.998Z,99172.41
2022-08-07T22:10:58.610Z,99176.63
2022-08-07T22:13:52.921Z,99173.94
2022-08-07T22:16:38.397Z,99167.63
2022-08-07T22:19:20.237Z,99165.97
2022-08-07T22:22:29.294Z,99172.41
2022-08-07T22:25:11.328Z,99173.28
2022-08-07T22:28:20.005Z,99173.16
2022-08-07T22:30:31.488Z,99161.03
2022-08-07T22:33:09.330Z,99166.97
2022-08-07T22:36:11.814Z,99160.31
2022-08-07T22:39:01.335Z,99165.47
2022-08-07T22:42:03.574Z,99160.47
2022-08-07T22:44:59.125Z,99159.00
2022-08-07T22:47:45.193Z,99164.56
2022-08-07T22:50:20.736Z,99162.88
2022-08-07T22:52:56.212Z,99167.16
2022-08-07T22:56:02.005Z,99164.09
2022-08-07T22:58:43.219Z,99163.78
2022-08-07T23:01:50.590Z,99164.56
2022-08-07T23:04:36.093Z,99162.84
2022-08-07T23:07:44.884Z,99159.41
2022-08-07T23:10:41.857Z,99160.91
2022-08-07T23:13:49.304Z,99157.69
2022-08-07T23:16:48.281Z,99162.19
2022-08-07T23:20:02.812Z,99157.78
2022-08-07T23:22:39.943Z,99164.78
2022-08-07T23:25:45.895Z,99171.03
2022-08-07T23:28:54.584Z,99163.22
2022-08-07T23:32:49.256Z,99156.97
2022-08-07T23:34:37.695Z,99164.66
2022-08-07T23:37:33.715Z,99165.22
2022-08-07T23:40:27.396Z,99172.59
2022-08-07T23:43:37.896Z,99161.94
2022-08-07T23:46:13.012Z,99165.56
2022-08-07T23:49:04.996Z,99170.28
2022-08-07T23:53:11.807Z,99168.63
2022-08-07T23:54:46.027Z,99169.50
2022-08-07T23:57:42.953Z,99172.22
